<?xml version="1.0" encoding="UTF-8" standalone="no" ?>
<gpx xmlns="http://www.topografix.com/GPX/1/1" xmlns:xsi="http://www.w3.org/2001/XMLSchema-instance" xsi:schemaLocation="http://www.topografix.com/GPX/1/1 http://www.topografix.com/GPX/1/1/gpx.xsd" version="1.1" creator="VisuGPX - https://www.visugpx.com">
  <metadata>
    <name>2025 08 03 Nérac </name>
  </metadata>
  <wpt lat="44.13446" lon="0.34159">
    <ele>104</ele>
    <name><![CDATA[Point de passage 1]]></name>
  </wpt>
  <wpt lat="44.13433" lon="0.34158">
    <ele>97</ele>
    <name><![CDATA[Point de passage 2]]></name>
  </wpt>
  <trk>
    <name><![CDATA[Randonnée du 03/08/2025 à 09:23]]></name>
    <extensions>
      <line xmlns="http://www.topografix.com/GPX/gpx_style/0/2">
        <color>0000FF</color>
        <width>4</width>
      </line>
    </extensions>
    <trkseg>
      <trkpt lat="44.13463" lon="0.3418">
        <ele>53.1</ele>
        <time>2025-08-03T07:23:30.501Z</time>
      </trkpt>
      <trkpt lat="44.13418" lon="0.34156">
        <ele>49.7</ele>
        <time>2025-08-03T07:24:12.501Z</time>
      </trkpt>
      <trkpt lat="44.13443" lon="0.34177">
        <ele>51.3</ele>
        <time>2025-08-03T07:24:16.501Z</time>
      </trkpt>
      <trkpt lat="44.13418" lon="0.34161">
        <ele>60</ele>
        <time>2025-08-03T07:24:22.501Z</time>
      </trkpt>
      <trkpt lat="44.13413" lon="0.34162">
        <ele>60</ele>
        <time>2025-08-03T07:24:26.501Z</time>
      </trkpt>
      <trkpt lat="44.13405" lon="0.34156">
        <ele>57</ele>
        <time>2025-08-03T07:24:42.501Z</time>
      </trkpt>
      <trkpt lat="44.13395" lon="0.34156">
        <ele>54</ele>
        <time>2025-08-03T07:24:52.501Z</time>
      </trkpt>
      <trkpt lat="44.1339" lon="0.34152">
        <ele>58</ele>
        <time>2025-08-03T07:25:28.501Z</time>
      </trkpt>
      <trkpt lat="44.13372" lon="0.34156">
        <ele>56</ele>
        <time>2025-08-03T07:25:44.501Z</time>
      </trkpt>
      <trkpt lat="44.13339" lon="0.34177">
        <ele>54</ele>
        <time>2025-08-03T07:26:16.501Z</time>
      </trkpt>
      <trkpt lat="44.13324" lon="0.34192">
        <ele>55</ele>
        <time>2025-08-03T07:26:32.501Z</time>
      </trkpt>
      <trkpt lat="44.13305" lon="0.34206">
        <ele>60</ele>
        <time>2025-08-03T07:26:48.501Z</time>
      </trkpt>
      <trkpt lat="44.13297" lon="0.34219">
        <ele>61</ele>
        <time>2025-08-03T07:27:00.501Z</time>
      </trkpt>
      <trkpt lat="44.13271" lon="0.34236">
        <ele>57</ele>
        <time>2025-08-03T07:27:34.501Z</time>
      </trkpt>
      <trkpt lat="44.13264" lon="0.34242">
        <ele>65</ele>
        <time>2025-08-03T07:30:14.501Z</time>
      </trkpt>
      <trkpt lat="44.13241" lon="0.34255">
        <ele>60</ele>
        <time>2025-08-03T07:30:38.501Z</time>
      </trkpt>
      <trkpt lat="44.13236" lon="0.34255">
        <ele>58</ele>
        <time>2025-08-03T07:30:42.501Z</time>
      </trkpt>
      <trkpt lat="44.13218" lon="0.34267">
        <ele>57</ele>
        <time>2025-08-03T07:31:00.501Z</time>
      </trkpt>
      <trkpt lat="44.1321" lon="0.34265">
        <ele>56</ele>
        <time>2025-08-03T07:31:08.501Z</time>
      </trkpt>
      <trkpt lat="44.13185" lon="0.34279">
        <ele>58</ele>
        <time>2025-08-03T07:31:32.501Z</time>
      </trkpt>
      <trkpt lat="44.13178" lon="0.34285">
        <ele>58</ele>
        <time>2025-08-03T07:31:40.501Z</time>
      </trkpt>
      <trkpt lat="44.13159" lon="0.34294">
        <ele>57</ele>
        <time>2025-08-03T07:31:56.501Z</time>
      </trkpt>
      <trkpt lat="44.13149" lon="0.34292">
        <ele>53</ele>
        <time>2025-08-03T07:32:12.501Z</time>
      </trkpt>
      <trkpt lat="44.1314" lon="0.34298">
        <ele>54</ele>
        <time>2025-08-03T07:32:24.501Z</time>
      </trkpt>
      <trkpt lat="44.13125" lon="0.343">
        <ele>55</ele>
        <time>2025-08-03T07:32:40.501Z</time>
      </trkpt>
      <trkpt lat="44.13113" lon="0.34304">
        <ele>51</ele>
        <time>2025-08-03T07:32:52.501Z</time>
      </trkpt>
      <trkpt lat="44.13108" lon="0.34302">
        <ele>51</ele>
        <time>2025-08-03T07:32:56.501Z</time>
      </trkpt>
      <trkpt lat="44.13072" lon="0.3431">
        <ele>53</ele>
        <time>2025-08-03T07:33:24.501Z</time>
      </trkpt>
      <trkpt lat="44.13059" lon="0.34307">
        <ele>52</ele>
        <time>2025-08-03T07:33:32.501Z</time>
      </trkpt>
      <trkpt lat="44.12976" lon="0.3432">
        <ele>57</ele>
        <time>2025-08-03T07:34:36.501Z</time>
      </trkpt>
      <trkpt lat="44.12944" lon="0.34321">
        <ele>58</ele>
        <time>2025-08-03T07:35:00.501Z</time>
      </trkpt>
      <trkpt lat="44.12936" lon="0.34318">
        <ele>57</ele>
        <time>2025-08-03T07:35:04.501Z</time>
      </trkpt>
      <trkpt lat="44.12885" lon="0.34317">
        <ele>56</ele>
        <time>2025-08-03T07:35:44.501Z</time>
      </trkpt>
      <trkpt lat="44.12874" lon="0.34315">
        <ele>59</ele>
        <time>2025-08-03T07:35:56.501Z</time>
      </trkpt>
      <trkpt lat="44.12864" lon="0.34313">
        <ele>60</ele>
        <time>2025-08-03T07:36:04.501Z</time>
      </trkpt>
      <trkpt lat="44.12855" lon="0.34315">
        <ele>61</ele>
        <time>2025-08-03T07:36:12.501Z</time>
      </trkpt>
      <trkpt lat="44.12827" lon="0.34306">
        <ele>57</ele>
        <time>2025-08-03T07:36:36.501Z</time>
      </trkpt>
      <trkpt lat="44.12785" lon="0.34306">
        <ele>64</ele>
        <time>2025-08-03T07:37:12.501Z</time>
      </trkpt>
      <trkpt lat="44.12774" lon="0.34303">
        <ele>63</ele>
        <time>2025-08-03T07:37:20.501Z</time>
      </trkpt>
      <trkpt lat="44.12765" lon="0.34297">
        <ele>60</ele>
        <time>2025-08-03T07:37:28.501Z</time>
      </trkpt>
      <trkpt lat="44.12751" lon="0.34293">
        <ele>58</ele>
        <time>2025-08-03T07:37:40.501Z</time>
      </trkpt>
      <trkpt lat="44.12742" lon="0.34285">
        <ele>58</ele>
        <time>2025-08-03T07:37:56.501Z</time>
      </trkpt>
      <trkpt lat="44.12676" lon="0.34274">
        <ele>58</ele>
        <time>2025-08-03T07:39:16.501Z</time>
      </trkpt>
      <trkpt lat="44.12672" lon="0.34271">
        <ele>55</ele>
        <time>2025-08-03T07:39:32.501Z</time>
      </trkpt>
      <trkpt lat="44.12648" lon="0.34272">
        <ele>62</ele>
        <time>2025-08-03T07:39:48.501Z</time>
      </trkpt>
      <trkpt lat="44.12634" lon="0.3427">
        <ele>61</ele>
        <time>2025-08-03T07:40:04.501Z</time>
      </trkpt>
      <trkpt lat="44.12626" lon="0.34264">
        <ele>58</ele>
        <time>2025-08-03T07:41:36.501Z</time>
      </trkpt>
      <trkpt lat="44.1261" lon="0.34259">
        <ele>49</ele>
        <time>2025-08-03T07:44:20.501Z</time>
      </trkpt>
      <trkpt lat="44.12602" lon="0.34256">
        <ele>50</ele>
        <time>2025-08-03T07:44:28.501Z</time>
      </trkpt>
      <trkpt lat="44.12596" lon="0.34257">
        <ele>50</ele>
        <time>2025-08-03T07:44:32.501Z</time>
      </trkpt>
      <trkpt lat="44.12578" lon="0.34248">
        <ele>50</ele>
        <time>2025-08-03T07:44:48.501Z</time>
      </trkpt>
      <trkpt lat="44.12569" lon="0.34246">
        <ele>52</ele>
        <time>2025-08-03T07:44:56.501Z</time>
      </trkpt>
      <trkpt lat="44.1256" lon="0.34247">
        <ele>55</ele>
        <time>2025-08-03T07:45:04.501Z</time>
      </trkpt>
      <trkpt lat="44.12533" lon="0.34242">
        <ele>47</ele>
        <time>2025-08-03T07:45:28.501Z</time>
      </trkpt>
      <trkpt lat="44.12493" lon="0.34247">
        <ele>50</ele>
        <time>2025-08-03T07:46:00.501Z</time>
      </trkpt>
      <trkpt lat="44.12477" lon="0.34255">
        <ele>54</ele>
        <time>2025-08-03T07:46:16.501Z</time>
      </trkpt>
      <trkpt lat="44.12468" lon="0.34256">
        <ele>55</ele>
        <time>2025-08-03T07:46:24.501Z</time>
      </trkpt>
      <trkpt lat="44.12451" lon="0.34265">
        <ele>59</ele>
        <time>2025-08-03T07:46:40.501Z</time>
      </trkpt>
      <trkpt lat="44.12435" lon="0.34269">
        <ele>61</ele>
        <time>2025-08-03T07:46:56.501Z</time>
      </trkpt>
      <trkpt lat="44.12429" lon="0.34268">
        <ele>58</ele>
        <time>2025-08-03T07:47:00.501Z</time>
      </trkpt>
      <trkpt lat="44.12405" lon="0.34279">
        <ele>59</ele>
        <time>2025-08-03T07:47:20.501Z</time>
      </trkpt>
      <trkpt lat="44.12369" lon="0.34291">
        <ele>60</ele>
        <time>2025-08-03T07:47:52.501Z</time>
      </trkpt>
      <trkpt lat="44.12352" lon="0.34295">
        <ele>55</ele>
        <time>2025-08-03T07:48:08.501Z</time>
      </trkpt>
      <trkpt lat="44.12337" lon="0.34287">
        <ele>49</ele>
        <time>2025-08-03T07:48:36.501Z</time>
      </trkpt>
      <trkpt lat="44.12304" lon="0.34312">
        <ele>59</ele>
        <time>2025-08-03T07:49:08.501Z</time>
      </trkpt>
      <trkpt lat="44.12285" lon="0.3432">
        <ele>59</ele>
        <time>2025-08-03T07:49:24.501Z</time>
      </trkpt>
      <trkpt lat="44.12274" lon="0.34319">
        <ele>56</ele>
        <time>2025-08-03T07:49:32.501Z</time>
      </trkpt>
      <trkpt lat="44.12259" lon="0.34324">
        <ele>52</ele>
        <time>2025-08-03T07:49:48.501Z</time>
      </trkpt>
      <trkpt lat="44.12246" lon="0.34337">
        <ele>54</ele>
        <time>2025-08-03T07:50:04.501Z</time>
      </trkpt>
      <trkpt lat="44.12236" lon="0.34352">
        <ele>57</ele>
        <time>2025-08-03T07:50:16.501Z</time>
      </trkpt>
      <trkpt lat="44.12227" lon="0.34356">
        <ele>57</ele>
        <time>2025-08-03T07:50:24.501Z</time>
      </trkpt>
      <trkpt lat="44.1222" lon="0.34377">
        <ele>54</ele>
        <time>2025-08-03T07:50:42.501Z</time>
      </trkpt>
      <trkpt lat="44.12226" lon="0.34379">
        <ele>54</ele>
        <time>2025-08-03T07:50:46.501Z</time>
      </trkpt>
      <trkpt lat="44.12228" lon="0.34393">
        <ele>51</ele>
        <time>2025-08-03T07:50:54.501Z</time>
      </trkpt>
      <trkpt lat="44.12226" lon="0.34405">
        <ele>49</ele>
        <time>2025-08-03T07:51:02.501Z</time>
      </trkpt>
      <trkpt lat="44.12227" lon="0.34429">
        <ele>50</ele>
        <time>2025-08-03T07:51:22.501Z</time>
      </trkpt>
      <trkpt lat="44.12234" lon="0.34438">
        <ele>49</ele>
        <time>2025-08-03T07:51:30.501Z</time>
      </trkpt>
      <trkpt lat="44.12238" lon="0.34458">
        <ele>50</ele>
        <time>2025-08-03T07:51:50.501Z</time>
      </trkpt>
      <trkpt lat="44.12236" lon="0.34466">
        <ele>49</ele>
        <time>2025-08-03T07:51:58.501Z</time>
      </trkpt>
      <trkpt lat="44.12241" lon="0.34491">
        <ele>49</ele>
        <time>2025-08-03T07:52:14.501Z</time>
      </trkpt>
      <trkpt lat="44.12239" lon="0.34516">
        <ele>52</ele>
        <time>2025-08-03T07:52:30.501Z</time>
      </trkpt>
      <trkpt lat="44.12243" lon="0.34566">
        <ele>53</ele>
        <time>2025-08-03T07:53:02.501Z</time>
      </trkpt>
      <trkpt lat="44.12251" lon="0.3459">
        <ele>54</ele>
        <time>2025-08-03T07:53:18.501Z</time>
      </trkpt>
      <trkpt lat="44.12267" lon="0.34589">
        <ele>59</ele>
        <time>2025-08-03T07:53:34.501Z</time>
      </trkpt>
      <trkpt lat="44.12277" lon="0.34592">
        <ele>58</ele>
        <time>2025-08-03T07:53:42.501Z</time>
      </trkpt>
      <trkpt lat="44.12359" lon="0.34715">
        <ele>56</ele>
        <time>2025-08-03T07:55:18.501Z</time>
      </trkpt>
      <trkpt lat="44.12383" lon="0.34758">
        <ele>58</ele>
        <time>2025-08-03T07:55:50.501Z</time>
      </trkpt>
      <trkpt lat="44.12397" lon="0.3478">
        <ele>58</ele>
        <time>2025-08-03T07:56:06.501Z</time>
      </trkpt>
      <trkpt lat="44.1242" lon="0.34823">
        <ele>59</ele>
        <time>2025-08-03T07:56:38.501Z</time>
      </trkpt>
      <trkpt lat="44.12446" lon="0.34865">
        <ele>60</ele>
        <time>2025-08-03T07:57:10.501Z</time>
      </trkpt>
      <trkpt lat="44.12457" lon="0.3489">
        <ele>60</ele>
        <time>2025-08-03T07:57:26.501Z</time>
      </trkpt>
      <trkpt lat="44.12456" lon="0.34903">
        <ele>60</ele>
        <time>2025-08-03T07:57:34.501Z</time>
      </trkpt>
      <trkpt lat="44.12424" lon="0.34935">
        <ele>60</ele>
        <time>2025-08-03T07:58:06.501Z</time>
      </trkpt>
      <trkpt lat="44.12395" lon="0.3497">
        <ele>59</ele>
        <time>2025-08-03T07:58:38.501Z</time>
      </trkpt>
      <trkpt lat="44.12369" lon="0.35007">
        <ele>57</ele>
        <time>2025-08-03T07:59:10.501Z</time>
      </trkpt>
      <trkpt lat="44.12326" lon="0.35077">
        <ele>59</ele>
        <time>2025-08-03T08:00:06.501Z</time>
      </trkpt>
      <trkpt lat="44.12335" lon="0.35087">
        <ele>60</ele>
        <time>2025-08-03T08:00:22.501Z</time>
      </trkpt>
      <trkpt lat="44.12367" lon="0.35141">
        <ele>62</ele>
        <time>2025-08-03T08:01:10.501Z</time>
      </trkpt>
      <trkpt lat="44.12375" lon="0.35161">
        <ele>63</ele>
        <time>2025-08-03T08:01:26.501Z</time>
      </trkpt>
      <trkpt lat="44.12382" lon="0.35171">
        <ele>63</ele>
        <time>2025-08-03T08:01:34.501Z</time>
      </trkpt>
      <trkpt lat="44.12396" lon="0.35218">
        <ele>60</ele>
        <time>2025-08-03T08:02:06.501Z</time>
      </trkpt>
      <trkpt lat="44.1245" lon="0.35326">
        <ele>66</ele>
        <time>2025-08-03T08:03:34.501Z</time>
      </trkpt>
      <trkpt lat="44.12453" lon="0.35338">
        <ele>63</ele>
        <time>2025-08-03T08:03:42.501Z</time>
      </trkpt>
      <trkpt lat="44.12471" lon="0.35376">
        <ele>64</ele>
        <time>2025-08-03T08:04:14.501Z</time>
      </trkpt>
      <trkpt lat="44.1249" lon="0.35436">
        <ele>63</ele>
        <time>2025-08-03T08:06:54.501Z</time>
      </trkpt>
      <trkpt lat="44.12505" lon="0.3547">
        <ele>63</ele>
        <time>2025-08-03T08:07:18.501Z</time>
      </trkpt>
      <trkpt lat="44.12511" lon="0.3548">
        <ele>63</ele>
        <time>2025-08-03T08:07:26.501Z</time>
      </trkpt>
      <trkpt lat="44.12638" lon="0.35741">
        <ele>67</ele>
        <time>2025-08-03T08:10:38.501Z</time>
      </trkpt>
      <trkpt lat="44.12666" lon="0.35809">
        <ele>66</ele>
        <time>2025-08-03T08:11:42.501Z</time>
      </trkpt>
      <trkpt lat="44.12683" lon="0.35843">
        <ele>67</ele>
        <time>2025-08-03T08:12:14.501Z</time>
      </trkpt>
      <trkpt lat="44.12689" lon="0.35863">
        <ele>69</ele>
        <time>2025-08-03T08:14:54.501Z</time>
      </trkpt>
      <trkpt lat="44.12689" lon="0.35854">
        <ele>64</ele>
        <time>2025-08-03T08:17:02.501Z</time>
      </trkpt>
      <trkpt lat="44.12697" lon="0.35893">
        <ele>67</ele>
        <time>2025-08-03T08:17:50.501Z</time>
      </trkpt>
      <trkpt lat="44.12746" lon="0.36017">
        <ele>71</ele>
        <time>2025-08-03T08:19:18.501Z</time>
      </trkpt>
      <trkpt lat="44.12767" lon="0.36034">
        <ele>74</ele>
        <time>2025-08-03T08:19:38.501Z</time>
      </trkpt>
      <trkpt lat="44.12788" lon="0.36106">
        <ele>79</ele>
        <time>2025-08-03T08:20:38.501Z</time>
      </trkpt>
      <trkpt lat="44.12792" lon="0.36098">
        <ele>72</ele>
        <time>2025-08-03T08:21:10.501Z</time>
      </trkpt>
      <trkpt lat="44.12797" lon="0.361">
        <ele>77</ele>
        <time>2025-08-03T08:21:30.501Z</time>
      </trkpt>
      <trkpt lat="44.12809" lon="0.36092">
        <ele>76</ele>
        <time>2025-08-03T08:21:46.501Z</time>
      </trkpt>
      <trkpt lat="44.12855" lon="0.36041">
        <ele>76</ele>
        <time>2025-08-03T08:22:34.501Z</time>
      </trkpt>
      <trkpt lat="44.12872" lon="0.36035">
        <ele>75</ele>
        <time>2025-08-03T08:23:34.501Z</time>
      </trkpt>
      <trkpt lat="44.12874" lon="0.36023">
        <ele>76</ele>
        <time>2025-08-03T08:23:42.501Z</time>
      </trkpt>
      <trkpt lat="44.12876" lon="0.35996">
        <ele>75</ele>
        <time>2025-08-03T08:23:58.501Z</time>
      </trkpt>
      <trkpt lat="44.12893" lon="0.35912">
        <ele>74</ele>
        <time>2025-08-03T08:24:46.501Z</time>
      </trkpt>
      <trkpt lat="44.12901" lon="0.35894">
        <ele>73</ele>
        <time>2025-08-03T08:24:58.501Z</time>
      </trkpt>
      <trkpt lat="44.12907" lon="0.35893">
        <ele>72</ele>
        <time>2025-08-03T08:25:02.501Z</time>
      </trkpt>
      <trkpt lat="44.12945" lon="0.35922">
        <ele>73</ele>
        <time>2025-08-03T08:25:34.501Z</time>
      </trkpt>
      <trkpt lat="44.12959" lon="0.35945">
        <ele>75</ele>
        <time>2025-08-03T08:25:50.501Z</time>
      </trkpt>
      <trkpt lat="44.12968" lon="0.35981">
        <ele>78</ele>
        <time>2025-08-03T08:26:14.501Z</time>
      </trkpt>
      <trkpt lat="44.1298" lon="0.36">
        <ele>80</ele>
        <time>2025-08-03T08:26:30.501Z</time>
      </trkpt>
      <trkpt lat="44.13001" lon="0.36017">
        <ele>83</ele>
        <time>2025-08-03T08:26:54.501Z</time>
      </trkpt>
      <trkpt lat="44.13049" lon="0.36023">
        <ele>89</ele>
        <time>2025-08-03T08:27:42.501Z</time>
      </trkpt>
      <trkpt lat="44.13056" lon="0.36021">
        <ele>88</ele>
        <time>2025-08-03T08:27:58.501Z</time>
      </trkpt>
      <trkpt lat="44.13075" lon="0.36029">
        <ele>90</ele>
        <time>2025-08-03T08:28:30.501Z</time>
      </trkpt>
      <trkpt lat="44.13157" lon="0.36037">
        <ele>104</ele>
        <time>2025-08-03T08:29:50.501Z</time>
      </trkpt>
      <trkpt lat="44.13169" lon="0.36035">
        <ele>108</ele>
        <time>2025-08-03T08:30:06.501Z</time>
      </trkpt>
      <trkpt lat="44.13172" lon="0.36033">
        <ele>109</ele>
        <time>2025-08-03T08:30:14.501Z</time>
      </trkpt>
      <trkpt lat="44.13185" lon="0.36006">
        <ele>111</ele>
        <time>2025-08-03T08:30:38.501Z</time>
      </trkpt>
      <trkpt lat="44.13192" lon="0.36">
        <ele>114</ele>
        <time>2025-08-03T08:30:46.501Z</time>
      </trkpt>
      <trkpt lat="44.13206" lon="0.35997">
        <ele>116</ele>
        <time>2025-08-03T08:31:02.501Z</time>
      </trkpt>
      <trkpt lat="44.13221" lon="0.35988">
        <ele>117</ele>
        <time>2025-08-03T08:31:34.501Z</time>
      </trkpt>
      <trkpt lat="44.13222" lon="0.3599">
        <ele>115</ele>
        <time>2025-08-03T08:32:06.501Z</time>
      </trkpt>
      <trkpt lat="44.13224" lon="0.35995">
        <ele>117</ele>
        <time>2025-08-03T08:34:30.501Z</time>
      </trkpt>
      <trkpt lat="44.13223" lon="0.36029">
        <ele>115</ele>
        <time>2025-08-03T08:34:54.501Z</time>
      </trkpt>
      <trkpt lat="44.13231" lon="0.3605">
        <ele>114</ele>
        <time>2025-08-03T08:35:10.501Z</time>
      </trkpt>
      <trkpt lat="44.13279" lon="0.36129">
        <ele>116</ele>
        <time>2025-08-03T08:36:22.501Z</time>
      </trkpt>
      <trkpt lat="44.13277" lon="0.3614">
        <ele>114</ele>
        <time>2025-08-03T08:36:30.501Z</time>
      </trkpt>
      <trkpt lat="44.13264" lon="0.36156">
        <ele>115</ele>
        <time>2025-08-03T08:36:46.501Z</time>
      </trkpt>
      <trkpt lat="44.13253" lon="0.36175">
        <ele>115</ele>
        <time>2025-08-03T08:37:02.501Z</time>
      </trkpt>
      <trkpt lat="44.13261" lon="0.36194">
        <ele>114</ele>
        <time>2025-08-03T08:37:18.501Z</time>
      </trkpt>
      <trkpt lat="44.13282" lon="0.36226">
        <ele>116</ele>
        <time>2025-08-03T08:37:50.501Z</time>
      </trkpt>
      <trkpt lat="44.13329" lon="0.36275">
        <ele>116</ele>
        <time>2025-08-03T08:38:54.501Z</time>
      </trkpt>
      <trkpt lat="44.13343" lon="0.36293">
        <ele>117</ele>
        <time>2025-08-03T08:39:10.501Z</time>
      </trkpt>
      <trkpt lat="44.13364" lon="0.36336">
        <ele>115</ele>
        <time>2025-08-03T08:39:42.501Z</time>
      </trkpt>
      <trkpt lat="44.13377" lon="0.36355">
        <ele>117</ele>
        <time>2025-08-03T08:39:58.501Z</time>
      </trkpt>
      <trkpt lat="44.13382" lon="0.36368">
        <ele>116</ele>
        <time>2025-08-03T08:41:26.501Z</time>
      </trkpt>
      <trkpt lat="44.13399" lon="0.3635">
        <ele>119</ele>
        <time>2025-08-03T08:41:42.501Z</time>
      </trkpt>
      <trkpt lat="44.13465" lon="0.36292">
        <ele>125</ele>
        <time>2025-08-03T08:42:46.501Z</time>
      </trkpt>
      <trkpt lat="44.13528" lon="0.36233">
        <ele>126</ele>
        <time>2025-08-03T08:43:50.501Z</time>
      </trkpt>
      <trkpt lat="44.1356" lon="0.36205">
        <ele>126</ele>
        <time>2025-08-03T08:44:22.501Z</time>
      </trkpt>
      <trkpt lat="44.13576" lon="0.36188">
        <ele>124</ele>
        <time>2025-08-03T08:44:38.501Z</time>
      </trkpt>
      <trkpt lat="44.13586" lon="0.36182">
        <ele>126</ele>
        <time>2025-08-03T08:44:46.501Z</time>
      </trkpt>
      <trkpt lat="44.13627" lon="0.36184">
        <ele>126</ele>
        <time>2025-08-03T08:45:18.501Z</time>
      </trkpt>
      <trkpt lat="44.13631" lon="0.36179">
        <ele>125</ele>
        <time>2025-08-03T08:45:26.501Z</time>
      </trkpt>
      <trkpt lat="44.13642" lon="0.36176">
        <ele>127</ele>
        <time>2025-08-03T08:45:42.501Z</time>
      </trkpt>
      <trkpt lat="44.13741" lon="0.36257">
        <ele>130</ele>
        <time>2025-08-03T08:48:54.501Z</time>
      </trkpt>
      <trkpt lat="44.13785" lon="0.36289">
        <ele>136</ele>
        <time>2025-08-03T08:49:42.501Z</time>
      </trkpt>
      <trkpt lat="44.13791" lon="0.36296">
        <ele>136</ele>
        <time>2025-08-03T08:49:50.501Z</time>
      </trkpt>
      <trkpt lat="44.138" lon="0.36301">
        <ele>140</ele>
        <time>2025-08-03T08:49:58.501Z</time>
      </trkpt>
      <trkpt lat="44.13813" lon="0.36317">
        <ele>138</ele>
        <time>2025-08-03T08:50:14.501Z</time>
      </trkpt>
      <trkpt lat="44.13829" lon="0.36333">
        <ele>138</ele>
        <time>2025-08-03T08:50:30.501Z</time>
      </trkpt>
      <trkpt lat="44.13852" lon="0.36371">
        <ele>138</ele>
        <time>2025-08-03T08:51:02.501Z</time>
      </trkpt>
      <trkpt lat="44.13867" lon="0.36381">
        <ele>144</ele>
        <time>2025-08-03T08:51:18.501Z</time>
      </trkpt>
      <trkpt lat="44.13876" lon="0.36384">
        <ele>144</ele>
        <time>2025-08-03T08:51:26.501Z</time>
      </trkpt>
      <trkpt lat="44.13972" lon="0.36455">
        <ele>150</ele>
        <time>2025-08-03T08:53:02.501Z</time>
      </trkpt>
      <trkpt lat="44.1401" lon="0.36491">
        <ele>149</ele>
        <time>2025-08-03T08:53:42.501Z</time>
      </trkpt>
      <trkpt lat="44.14055" lon="0.36526">
        <ele>155</ele>
        <time>2025-08-03T08:54:30.501Z</time>
      </trkpt>
      <trkpt lat="44.14068" lon="0.36541">
        <ele>159</ele>
        <time>2025-08-03T08:54:46.501Z</time>
      </trkpt>
      <trkpt lat="44.14072" lon="0.36549">
        <ele>159</ele>
        <time>2025-08-03T08:54:54.501Z</time>
      </trkpt>
      <trkpt lat="44.1408" lon="0.36552">
        <ele>157</ele>
        <time>2025-08-03T09:00:06.501Z</time>
      </trkpt>
      <trkpt lat="44.1409" lon="0.36565">
        <ele>159</ele>
        <time>2025-08-03T09:01:06.501Z</time>
      </trkpt>
      <trkpt lat="44.14115" lon="0.36598">
        <ele>160</ele>
        <time>2025-08-03T09:01:54.501Z</time>
      </trkpt>
      <trkpt lat="44.1414" lon="0.36625">
        <ele>162</ele>
        <time>2025-08-03T09:02:18.501Z</time>
      </trkpt>
      <trkpt lat="44.14158" lon="0.36635">
        <ele>164</ele>
        <time>2025-08-03T09:02:34.501Z</time>
      </trkpt>
      <trkpt lat="44.14195" lon="0.36652">
        <ele>163</ele>
        <time>2025-08-03T09:03:06.501Z</time>
      </trkpt>
      <trkpt lat="44.14213" lon="0.36666">
        <ele>163</ele>
        <time>2025-08-03T09:03:22.501Z</time>
      </trkpt>
      <trkpt lat="44.14231" lon="0.36685">
        <ele>163</ele>
        <time>2025-08-03T09:03:38.501Z</time>
      </trkpt>
      <trkpt lat="44.14245" lon="0.36706">
        <ele>160</ele>
        <time>2025-08-03T09:03:54.501Z</time>
      </trkpt>
      <trkpt lat="44.14268" lon="0.36753">
        <ele>164</ele>
        <time>2025-08-03T09:04:26.501Z</time>
      </trkpt>
      <trkpt lat="44.14296" lon="0.36831">
        <ele>167</ele>
        <time>2025-08-03T09:05:14.501Z</time>
      </trkpt>
      <trkpt lat="44.14313" lon="0.36853">
        <ele>167</ele>
        <time>2025-08-03T09:05:34.501Z</time>
      </trkpt>
      <trkpt lat="44.1432" lon="0.36854">
        <ele>168</ele>
        <time>2025-08-03T09:05:38.501Z</time>
      </trkpt>
      <trkpt lat="44.14327" lon="0.36859">
        <ele>171</ele>
        <time>2025-08-03T09:05:46.501Z</time>
      </trkpt>
      <trkpt lat="44.14331" lon="0.36858">
        <ele>171</ele>
        <time>2025-08-03T09:05:50.501Z</time>
      </trkpt>
      <trkpt lat="44.14335" lon="0.3685">
        <ele>168</ele>
        <time>2025-08-03T09:05:58.501Z</time>
      </trkpt>
      <trkpt lat="44.14356" lon="0.36821">
        <ele>169</ele>
        <time>2025-08-03T09:06:26.501Z</time>
      </trkpt>
      <trkpt lat="44.14354" lon="0.36808">
        <ele>168</ele>
        <time>2025-08-03T09:06:42.501Z</time>
      </trkpt>
      <trkpt lat="44.14344" lon="0.36777">
        <ele>171</ele>
        <time>2025-08-03T09:07:14.501Z</time>
      </trkpt>
      <trkpt lat="44.14341" lon="0.36761">
        <ele>173</ele>
        <time>2025-08-03T09:07:46.501Z</time>
      </trkpt>
      <trkpt lat="44.1434" lon="0.36744">
        <ele>173</ele>
        <time>2025-08-03T09:08:02.501Z</time>
      </trkpt>
      <trkpt lat="44.14353" lon="0.36698">
        <ele>175</ele>
        <time>2025-08-03T09:08:34.501Z</time>
      </trkpt>
      <trkpt lat="44.14394" lon="0.36607">
        <ele>180</ele>
        <time>2025-08-03T09:12:18.501Z</time>
      </trkpt>
      <trkpt lat="44.14394" lon="0.36609">
        <ele>177</ele>
        <time>2025-08-03T09:13:06.501Z</time>
      </trkpt>
      <trkpt lat="44.14418" lon="0.36542">
        <ele>183</ele>
        <time>2025-08-03T09:13:54.501Z</time>
      </trkpt>
      <trkpt lat="44.14425" lon="0.36531">
        <ele>183</ele>
        <time>2025-08-03T09:14:02.501Z</time>
      </trkpt>
      <trkpt lat="44.14427" lon="0.36523">
        <ele>185</ele>
        <time>2025-08-03T09:14:18.501Z</time>
      </trkpt>
      <trkpt lat="44.14492" lon="0.36425">
        <ele>182</ele>
        <time>2025-08-03T09:15:38.501Z</time>
      </trkpt>
      <trkpt lat="44.14507" lon="0.36375">
        <ele>177</ele>
        <time>2025-08-03T09:16:10.501Z</time>
      </trkpt>
      <trkpt lat="44.14518" lon="0.36314">
        <ele>177</ele>
        <time>2025-08-03T09:16:42.501Z</time>
      </trkpt>
      <trkpt lat="44.14526" lon="0.36288">
        <ele>174</ele>
        <time>2025-08-03T09:16:58.501Z</time>
      </trkpt>
      <trkpt lat="44.14551" lon="0.36243">
        <ele>169</ele>
        <time>2025-08-03T09:17:30.501Z</time>
      </trkpt>
      <trkpt lat="44.14562" lon="0.3622">
        <ele>170</ele>
        <time>2025-08-03T09:17:46.501Z</time>
      </trkpt>
      <trkpt lat="44.14582" lon="0.36195">
        <ele>172</ele>
        <time>2025-08-03T09:18:10.501Z</time>
      </trkpt>
      <trkpt lat="44.14583" lon="0.36192">
        <ele>173</ele>
        <time>2025-08-03T09:18:18.501Z</time>
      </trkpt>
      <trkpt lat="44.14587" lon="0.3619">
        <ele>172</ele>
        <time>2025-08-03T09:18:26.501Z</time>
      </trkpt>
      <trkpt lat="44.14593" lon="0.36183">
        <ele>171</ele>
        <time>2025-08-03T09:18:34.501Z</time>
      </trkpt>
      <trkpt lat="44.14595" lon="0.36175">
        <ele>171</ele>
        <time>2025-08-03T09:18:42.501Z</time>
      </trkpt>
      <trkpt lat="44.14607" lon="0.36161">
        <ele>169</ele>
        <time>2025-08-03T09:18:58.501Z</time>
      </trkpt>
      <trkpt lat="44.14624" lon="0.36149">
        <ele>171</ele>
        <time>2025-08-03T09:19:14.501Z</time>
      </trkpt>
      <trkpt lat="44.14631" lon="0.36138">
        <ele>172</ele>
        <time>2025-08-03T09:19:30.501Z</time>
      </trkpt>
      <trkpt lat="44.14636" lon="0.36134">
        <ele>171</ele>
        <time>2025-08-03T09:20:06.501Z</time>
      </trkpt>
      <trkpt lat="44.14665" lon="0.36103">
        <ele>173</ele>
        <time>2025-08-03T09:20:38.501Z</time>
      </trkpt>
      <trkpt lat="44.14673" lon="0.36097">
        <ele>175</ele>
        <time>2025-08-03T09:20:54.501Z</time>
      </trkpt>
      <trkpt lat="44.14673" lon="0.36089">
        <ele>174</ele>
        <time>2025-08-03T09:21:02.501Z</time>
      </trkpt>
      <trkpt lat="44.14668" lon="0.36078">
        <ele>173</ele>
        <time>2025-08-03T09:21:10.501Z</time>
      </trkpt>
      <trkpt lat="44.14635" lon="0.36053">
        <ele>175</ele>
        <time>2025-08-03T09:21:42.501Z</time>
      </trkpt>
      <trkpt lat="44.1459" lon="0.36034">
        <ele>165</ele>
        <time>2025-08-03T09:22:22.501Z</time>
      </trkpt>
      <trkpt lat="44.14568" lon="0.36005">
        <ele>168</ele>
        <time>2025-08-03T09:22:54.501Z</time>
      </trkpt>
      <trkpt lat="44.1452" lon="0.35965">
        <ele>161</ele>
        <time>2025-08-03T09:23:42.501Z</time>
      </trkpt>
      <trkpt lat="44.14497" lon="0.3593">
        <ele>152</ele>
        <time>2025-08-03T09:24:14.501Z</time>
      </trkpt>
      <trkpt lat="44.14492" lon="0.35919">
        <ele>151</ele>
        <time>2025-08-03T09:24:22.501Z</time>
      </trkpt>
      <trkpt lat="44.14483" lon="0.35906">
        <ele>149</ele>
        <time>2025-08-03T09:24:38.501Z</time>
      </trkpt>
      <trkpt lat="44.14436" lon="0.35855">
        <ele>141</ele>
        <time>2025-08-03T09:25:42.501Z</time>
      </trkpt>
      <trkpt lat="44.14412" lon="0.35811">
        <ele>139</ele>
        <time>2025-08-03T09:26:14.501Z</time>
      </trkpt>
      <trkpt lat="44.14387" lon="0.35777">
        <ele>138</ele>
        <time>2025-08-03T09:26:46.501Z</time>
      </trkpt>
      <trkpt lat="44.14354" lon="0.35717">
        <ele>134</ele>
        <time>2025-08-03T09:27:34.501Z</time>
      </trkpt>
      <trkpt lat="44.14341" lon="0.357">
        <ele>132</ele>
        <time>2025-08-03T09:28:06.501Z</time>
      </trkpt>
      <trkpt lat="44.14333" lon="0.35698">
        <ele>134</ele>
        <time>2025-08-03T09:28:38.501Z</time>
      </trkpt>
      <trkpt lat="44.14317" lon="0.35708">
        <ele>129</ele>
        <time>2025-08-03T09:28:54.501Z</time>
      </trkpt>
      <trkpt lat="44.1431" lon="0.35715">
        <ele>129</ele>
        <time>2025-08-03T09:29:02.501Z</time>
      </trkpt>
      <trkpt lat="44.14276" lon="0.3573">
        <ele>128</ele>
        <time>2025-08-03T09:29:34.501Z</time>
      </trkpt>
      <trkpt lat="44.14203" lon="0.35745">
        <ele>124</ele>
        <time>2025-08-03T09:30:38.501Z</time>
      </trkpt>
      <trkpt lat="44.14149" lon="0.35774">
        <ele>122</ele>
        <time>2025-08-03T09:31:26.501Z</time>
      </trkpt>
      <trkpt lat="44.14131" lon="0.35785">
        <ele>123</ele>
        <time>2025-08-03T09:31:42.501Z</time>
      </trkpt>
      <trkpt lat="44.14114" lon="0.3579">
        <ele>126</ele>
        <time>2025-08-03T09:31:58.501Z</time>
      </trkpt>
      <trkpt lat="44.1409" lon="0.35803">
        <ele>125</ele>
        <time>2025-08-03T09:32:18.501Z</time>
      </trkpt>
      <trkpt lat="44.14086" lon="0.35801">
        <ele>126</ele>
        <time>2025-08-03T09:32:22.501Z</time>
      </trkpt>
      <trkpt lat="44.14076" lon="0.35773">
        <ele>129</ele>
        <time>2025-08-03T09:32:38.501Z</time>
      </trkpt>
      <trkpt lat="44.14071" lon="0.35747">
        <ele>127</ele>
        <time>2025-08-03T09:32:54.501Z</time>
      </trkpt>
      <trkpt lat="44.14071" lon="0.35694">
        <ele>129</ele>
        <time>2025-08-03T09:33:26.501Z</time>
      </trkpt>
      <trkpt lat="44.14068" lon="0.35666">
        <ele>128</ele>
        <time>2025-08-03T09:33:42.501Z</time>
      </trkpt>
      <trkpt lat="44.14069" lon="0.35639">
        <ele>124</ele>
        <time>2025-08-03T09:33:58.501Z</time>
      </trkpt>
      <trkpt lat="44.14096" lon="0.35493">
        <ele>120</ele>
        <time>2025-08-03T09:35:26.501Z</time>
      </trkpt>
      <trkpt lat="44.14094" lon="0.35484">
        <ele>121</ele>
        <time>2025-08-03T09:35:34.501Z</time>
      </trkpt>
      <trkpt lat="44.14095" lon="0.35458">
        <ele>120</ele>
        <time>2025-08-03T09:35:50.501Z</time>
      </trkpt>
      <trkpt lat="44.14098" lon="0.35451">
        <ele>121</ele>
        <time>2025-08-03T09:35:58.501Z</time>
      </trkpt>
      <trkpt lat="44.14118" lon="0.35295">
        <ele>119</ele>
        <time>2025-08-03T09:37:34.501Z</time>
      </trkpt>
      <trkpt lat="44.14128" lon="0.3518">
        <ele>122</ele>
        <time>2025-08-03T09:38:54.501Z</time>
      </trkpt>
      <trkpt lat="44.14134" lon="0.35171">
        <ele>122</ele>
        <time>2025-08-03T09:39:02.501Z</time>
      </trkpt>
      <trkpt lat="44.14138" lon="0.3515">
        <ele>118</ele>
        <time>2025-08-03T09:39:18.501Z</time>
      </trkpt>
      <trkpt lat="44.14138" lon="0.35125">
        <ele>117</ele>
        <time>2025-08-03T09:39:34.501Z</time>
      </trkpt>
      <trkpt lat="44.14133" lon="0.35102">
        <ele>116</ele>
        <time>2025-08-03T09:39:50.501Z</time>
      </trkpt>
      <trkpt lat="44.14125" lon="0.3508">
        <ele>118</ele>
        <time>2025-08-03T09:40:06.501Z</time>
      </trkpt>
      <trkpt lat="44.14118" lon="0.35025">
        <ele>113</ele>
        <time>2025-08-03T09:40:46.501Z</time>
      </trkpt>
      <trkpt lat="44.14095" lon="0.34984">
        <ele>112</ele>
        <time>2025-08-03T09:41:50.501Z</time>
      </trkpt>
      <trkpt lat="44.1406" lon="0.34931">
        <ele>109</ele>
        <time>2025-08-03T09:42:38.501Z</time>
      </trkpt>
      <trkpt lat="44.14042" lon="0.34891">
        <ele>102</ele>
        <time>2025-08-03T09:43:10.501Z</time>
      </trkpt>
      <trkpt lat="44.14041" lon="0.34873">
        <ele>99</ele>
        <time>2025-08-03T09:43:26.501Z</time>
      </trkpt>
      <trkpt lat="44.14033" lon="0.3483">
        <ele>94</ele>
        <time>2025-08-03T09:43:58.501Z</time>
      </trkpt>
      <trkpt lat="44.14032" lon="0.34783">
        <ele>88</ele>
        <time>2025-08-03T09:44:30.501Z</time>
      </trkpt>
      <trkpt lat="44.14024" lon="0.34752">
        <ele>86</ele>
        <time>2025-08-03T09:44:50.501Z</time>
      </trkpt>
      <trkpt lat="44.1403" lon="0.34731">
        <ele>84</ele>
        <time>2025-08-03T09:45:06.501Z</time>
      </trkpt>
      <trkpt lat="44.14041" lon="0.34715">
        <ele>84</ele>
        <time>2025-08-03T09:45:22.501Z</time>
      </trkpt>
      <trkpt lat="44.1406" lon="0.3471">
        <ele>83</ele>
        <time>2025-08-03T09:45:38.501Z</time>
      </trkpt>
      <trkpt lat="44.1408" lon="0.34666">
        <ele>83</ele>
        <time>2025-08-03T09:46:10.501Z</time>
      </trkpt>
      <trkpt lat="44.14069" lon="0.34657">
        <ele>82</ele>
        <time>2025-08-03T09:46:26.501Z</time>
      </trkpt>
      <trkpt lat="44.14057" lon="0.3464">
        <ele>81</ele>
        <time>2025-08-03T09:46:42.501Z</time>
      </trkpt>
      <trkpt lat="44.14054" lon="0.3463">
        <ele>81</ele>
        <time>2025-08-03T09:46:50.501Z</time>
      </trkpt>
      <trkpt lat="44.14062" lon="0.34603">
        <ele>81</ele>
        <time>2025-08-03T09:47:06.501Z</time>
      </trkpt>
      <trkpt lat="44.14086" lon="0.34551">
        <ele>79</ele>
        <time>2025-08-03T09:47:46.501Z</time>
      </trkpt>
      <trkpt lat="44.14086" lon="0.34546">
        <ele>78</ele>
        <time>2025-08-03T09:47:50.501Z</time>
      </trkpt>
      <trkpt lat="44.1406" lon="0.34518">
        <ele>76</ele>
        <time>2025-08-03T09:48:22.501Z</time>
      </trkpt>
      <trkpt lat="44.14059" lon="0.34508">
        <ele>77</ele>
        <time>2025-08-03T09:48:30.501Z</time>
      </trkpt>
      <trkpt lat="44.14081" lon="0.34477">
        <ele>76</ele>
        <time>2025-08-03T09:49:02.501Z</time>
      </trkpt>
      <trkpt lat="44.1409" lon="0.34458">
        <ele>75</ele>
        <time>2025-08-03T09:49:18.501Z</time>
      </trkpt>
      <trkpt lat="44.141" lon="0.34444">
        <ele>75</ele>
        <time>2025-08-03T09:49:50.501Z</time>
      </trkpt>
      <trkpt lat="44.14098" lon="0.34436">
        <ele>74</ele>
        <time>2025-08-03T09:50:02.501Z</time>
      </trkpt>
      <trkpt lat="44.14088" lon="0.34423">
        <ele>72</ele>
        <time>2025-08-03T09:50:14.501Z</time>
      </trkpt>
      <trkpt lat="44.14096" lon="0.34399">
        <ele>72</ele>
        <time>2025-08-03T09:50:30.501Z</time>
      </trkpt>
      <trkpt lat="44.14109" lon="0.34369">
        <ele>71</ele>
        <time>2025-08-03T09:50:50.501Z</time>
      </trkpt>
      <trkpt lat="44.14113" lon="0.34366">
        <ele>70</ele>
        <time>2025-08-03T09:50:54.501Z</time>
      </trkpt>
      <trkpt lat="44.1413" lon="0.34333">
        <ele>71</ele>
        <time>2025-08-03T09:51:18.501Z</time>
      </trkpt>
      <trkpt lat="44.14129" lon="0.34322">
        <ele>71</ele>
        <time>2025-08-03T09:51:26.501Z</time>
      </trkpt>
      <trkpt lat="44.14097" lon="0.34292">
        <ele>66</ele>
        <time>2025-08-03T09:51:58.501Z</time>
      </trkpt>
      <trkpt lat="44.14087" lon="0.34295">
        <ele>68</ele>
        <time>2025-08-03T09:52:06.501Z</time>
      </trkpt>
      <trkpt lat="44.14068" lon="0.34304">
        <ele>69</ele>
        <time>2025-08-03T09:52:22.501Z</time>
      </trkpt>
      <trkpt lat="44.1403" lon="0.34318">
        <ele>68</ele>
        <time>2025-08-03T09:52:54.501Z</time>
      </trkpt>
      <trkpt lat="44.14016" lon="0.34329">
        <ele>69</ele>
        <time>2025-08-03T09:53:10.501Z</time>
      </trkpt>
      <trkpt lat="44.14011" lon="0.34338">
        <ele>71</ele>
        <time>2025-08-03T09:53:18.501Z</time>
      </trkpt>
      <trkpt lat="44.14009" lon="0.34349">
        <ele>71</ele>
        <time>2025-08-03T09:53:26.501Z</time>
      </trkpt>
      <trkpt lat="44.14009" lon="0.3437">
        <ele>70</ele>
        <time>2025-08-03T09:53:38.501Z</time>
      </trkpt>
      <trkpt lat="44.14001" lon="0.34375">
        <ele>70</ele>
        <time>2025-08-03T09:53:46.501Z</time>
      </trkpt>
      <trkpt lat="44.13979" lon="0.34382">
        <ele>72</ele>
        <time>2025-08-03T09:54:02.501Z</time>
      </trkpt>
      <trkpt lat="44.13936" lon="0.34402">
        <ele>69</ele>
        <time>2025-08-03T09:54:38.501Z</time>
      </trkpt>
      <trkpt lat="44.13931" lon="0.34401">
        <ele>68</ele>
        <time>2025-08-03T09:54:42.501Z</time>
      </trkpt>
      <trkpt lat="44.13919" lon="0.34369">
        <ele>68</ele>
        <time>2025-08-03T09:55:02.501Z</time>
      </trkpt>
      <trkpt lat="44.13912" lon="0.34371">
        <ele>69</ele>
        <time>2025-08-03T09:55:10.501Z</time>
      </trkpt>
      <trkpt lat="44.13905" lon="0.34378">
        <ele>69</ele>
        <time>2025-08-03T09:55:18.501Z</time>
      </trkpt>
      <trkpt lat="44.13866" lon="0.34402">
        <ele>71</ele>
        <time>2025-08-03T09:56:06.501Z</time>
      </trkpt>
      <trkpt lat="44.1386" lon="0.3442">
        <ele>72</ele>
        <time>2025-08-03T09:56:18.501Z</time>
      </trkpt>
      <trkpt lat="44.13862" lon="0.34457">
        <ele>73</ele>
        <time>2025-08-03T09:56:42.501Z</time>
      </trkpt>
      <trkpt lat="44.13858" lon="0.34478">
        <ele>73</ele>
        <time>2025-08-03T09:56:54.501Z</time>
      </trkpt>
      <trkpt lat="44.13837" lon="0.34505">
        <ele>71</ele>
        <time>2025-08-03T09:57:18.501Z</time>
      </trkpt>
      <trkpt lat="44.13827" lon="0.34505">
        <ele>71</ele>
        <time>2025-08-03T09:57:26.501Z</time>
      </trkpt>
      <trkpt lat="44.13817" lon="0.34498">
        <ele>73</ele>
        <time>2025-08-03T09:57:34.501Z</time>
      </trkpt>
      <trkpt lat="44.13813" lon="0.34474">
        <ele>70</ele>
        <time>2025-08-03T09:57:50.501Z</time>
      </trkpt>
      <trkpt lat="44.13807" lon="0.3447">
        <ele>67</ele>
        <time>2025-08-03T09:57:58.501Z</time>
      </trkpt>
      <trkpt lat="44.13796" lon="0.34471">
        <ele>68</ele>
        <time>2025-08-03T09:58:10.501Z</time>
      </trkpt>
      <trkpt lat="44.13785" lon="0.34446">
        <ele>69</ele>
        <time>2025-08-03T09:58:26.501Z</time>
      </trkpt>
      <trkpt lat="44.13771" lon="0.34394">
        <ele>69</ele>
        <time>2025-08-03T09:58:58.501Z</time>
      </trkpt>
      <trkpt lat="44.13768" lon="0.34367">
        <ele>70</ele>
        <time>2025-08-03T09:59:14.501Z</time>
      </trkpt>
      <trkpt lat="44.1376" lon="0.3435">
        <ele>71</ele>
        <time>2025-08-03T09:59:30.501Z</time>
      </trkpt>
      <trkpt lat="44.13777" lon="0.34362">
        <ele>71</ele>
        <time>2025-08-03T09:59:42.501Z</time>
      </trkpt>
      <trkpt lat="44.13778" lon="0.34365">
        <ele>72</ele>
        <time>2025-08-03T09:59:50.501Z</time>
      </trkpt>
      <trkpt lat="44.1378" lon="0.34345">
        <ele>71</ele>
        <time>2025-08-03T09:59:58.501Z</time>
      </trkpt>
      <trkpt lat="44.13778" lon="0.34336">
        <ele>72</ele>
        <time>2025-08-03T10:00:06.501Z</time>
      </trkpt>
      <trkpt lat="44.13782" lon="0.34329">
        <ele>72</ele>
        <time>2025-08-03T10:00:14.501Z</time>
      </trkpt>
      <trkpt lat="44.13771" lon="0.34305">
        <ele>74</ele>
        <time>2025-08-03T10:00:26.501Z</time>
      </trkpt>
      <trkpt lat="44.13769" lon="0.3429">
        <ele>74</ele>
        <time>2025-08-03T10:00:34.501Z</time>
      </trkpt>
      <trkpt lat="44.13764" lon="0.3428">
        <ele>72</ele>
        <time>2025-08-03T10:00:42.501Z</time>
      </trkpt>
      <trkpt lat="44.13766" lon="0.34278">
        <ele>71</ele>
        <time>2025-08-03T10:00:44.501Z</time>
      </trkpt>
      <trkpt lat="44.1376" lon="0.34271">
        <ele>69</ele>
        <time>2025-08-03T10:00:48.501Z</time>
      </trkpt>
      <trkpt lat="44.13766" lon="0.34257">
        <ele>65</ele>
        <time>2025-08-03T10:03:28.501Z</time>
      </trkpt>
      <trkpt lat="44.13762" lon="0.34256">
        <ele>66</ele>
        <time>2025-08-03T10:03:36.501Z</time>
      </trkpt>
      <trkpt lat="44.13753" lon="0.34264">
        <ele>67</ele>
        <time>2025-08-03T10:03:46.501Z</time>
      </trkpt>
      <trkpt lat="44.13742" lon="0.34266">
        <ele>67</ele>
        <time>2025-08-03T10:03:54.501Z</time>
      </trkpt>
      <trkpt lat="44.13726" lon="0.34287">
        <ele>67</ele>
        <time>2025-08-03T10:04:10.501Z</time>
      </trkpt>
      <trkpt lat="44.13718" lon="0.34292">
        <ele>69</ele>
        <time>2025-08-03T10:04:16.501Z</time>
      </trkpt>
      <trkpt lat="44.13713" lon="0.34285">
        <ele>71</ele>
        <time>2025-08-03T10:04:24.501Z</time>
      </trkpt>
      <trkpt lat="44.13715" lon="0.34283">
        <ele>71</ele>
        <time>2025-08-03T10:04:28.501Z</time>
      </trkpt>
      <trkpt lat="44.13711" lon="0.34278">
        <ele>69</ele>
        <time>2025-08-03T10:04:36.501Z</time>
      </trkpt>
      <trkpt lat="44.13694" lon="0.34277">
        <ele>66</ele>
        <time>2025-08-03T10:04:56.501Z</time>
      </trkpt>
      <trkpt lat="44.1369" lon="0.34282">
        <ele>65</ele>
        <time>2025-08-03T10:05:00.501Z</time>
      </trkpt>
      <trkpt lat="44.13681" lon="0.3428">
        <ele>64</ele>
        <time>2025-08-03T10:05:08.501Z</time>
      </trkpt>
      <trkpt lat="44.13673" lon="0.34273">
        <ele>64</ele>
        <time>2025-08-03T10:05:16.501Z</time>
      </trkpt>
      <trkpt lat="44.13675" lon="0.34224">
        <ele>58</ele>
        <time>2025-08-03T10:05:52.501Z</time>
      </trkpt>
      <trkpt lat="44.1367" lon="0.34218">
        <ele>56</ele>
        <time>2025-08-03T10:06:00.501Z</time>
      </trkpt>
      <trkpt lat="44.13673" lon="0.3422">
        <ele>61</ele>
        <time>2025-08-03T10:06:16.501Z</time>
      </trkpt>
      <trkpt lat="44.13664" lon="0.3422">
        <ele>65</ele>
        <time>2025-08-03T10:06:24.501Z</time>
      </trkpt>
      <trkpt lat="44.13661" lon="0.34214">
        <ele>65</ele>
        <time>2025-08-03T10:06:40.501Z</time>
      </trkpt>
      <trkpt lat="44.13662" lon="0.34196">
        <ele>64</ele>
        <time>2025-08-03T10:06:52.501Z</time>
      </trkpt>
      <trkpt lat="44.13667" lon="0.34186">
        <ele>53</ele>
        <time>2025-08-03T10:07:52.501Z</time>
      </trkpt>
      <trkpt lat="44.13646" lon="0.34171">
        <ele>61</ele>
        <time>2025-08-03T10:08:32.501Z</time>
      </trkpt>
      <trkpt lat="44.13591" lon="0.34152">
        <ele>54</ele>
        <time>2025-08-03T10:09:52.501Z</time>
      </trkpt>
      <trkpt lat="44.1357" lon="0.34152">
        <ele>56</ele>
        <time>2025-08-03T10:10:10.501Z</time>
      </trkpt>
      <trkpt lat="44.13561" lon="0.34161">
        <ele>52</ele>
        <time>2025-08-03T10:10:26.501Z</time>
      </trkpt>
      <trkpt lat="44.13552" lon="0.34165">
        <ele>53</ele>
        <time>2025-08-03T10:10:42.501Z</time>
      </trkpt>
      <trkpt lat="44.1355" lon="0.34171">
        <ele>54</ele>
        <time>2025-08-03T10:10:46.501Z</time>
      </trkpt>
      <trkpt lat="44.13541" lon="0.34176">
        <ele>57</ele>
        <time>2025-08-03T10:10:54.501Z</time>
      </trkpt>
      <trkpt lat="44.13536" lon="0.34185">
        <ele>58</ele>
        <time>2025-08-03T10:11:02.501Z</time>
      </trkpt>
      <trkpt lat="44.13505" lon="0.34185">
        <ele>69</ele>
        <time>2025-08-03T10:11:32.501Z</time>
      </trkpt>
      <trkpt lat="44.13504" lon="0.34187">
        <ele>68</ele>
        <time>2025-08-03T10:11:36.501Z</time>
      </trkpt>
      <trkpt lat="44.135" lon="0.34186">
        <ele>60</ele>
        <time>2025-08-03T10:11:56.501Z</time>
      </trkpt>
      <trkpt lat="44.13499" lon="0.34201">
        <ele>58</ele>
        <time>2025-08-03T10:12:20.501Z</time>
      </trkpt>
      <trkpt lat="44.13496" lon="0.34213">
        <ele>60</ele>
        <time>2025-08-03T10:12:28.501Z</time>
      </trkpt>
      <trkpt lat="44.13492" lon="0.34217">
        <ele>60</ele>
        <time>2025-08-03T10:12:32.501Z</time>
      </trkpt>
      <trkpt lat="44.13483" lon="0.34215">
        <ele>63</ele>
        <time>2025-08-03T10:12:40.501Z</time>
      </trkpt>
      <trkpt lat="44.13471" lon="0.34217">
        <ele>61</ele>
        <time>2025-08-03T10:12:56.501Z</time>
      </trkpt>
      <trkpt lat="44.13467" lon="0.3422">
        <ele>59</ele>
        <time>2025-08-03T10:13:04.501Z</time>
      </trkpt>
      <trkpt lat="44.13469" lon="0.34199">
        <ele>55</ele>
        <time>2025-08-03T10:13:48.501Z</time>
      </trkpt>
      <trkpt lat="44.13467" lon="0.34187">
        <ele>55</ele>
        <time>2025-08-03T10:13:50.501Z</time>
      </trkpt>
      <trkpt lat="44.13464" lon="0.3418">
        <ele>55</ele>
        <time>2025-08-03T10:13:52.501Z</time>
      </trkpt>
    </trkseg>
  </trk>
</gpx>